Terminal Aerodrome Forecast
Issued by NWS Knoxville/Tri Cities, TN

Home | Current Version | Previous Version | Text Only | Print | Product List | Glossary On
Versions: 1 2 3 4 5 6 7 8 9 10 11 12 13 14 15 16 17 18 19 20 21 22 23 24 25 26 27 28 29 30 31 32 33 34 35 36 37 38 39 40 41 42 43 44 45 46 47 48 49
000
FTUS44 KMRX 051721
TAFTRI
TAF
KTRI 051721Z 0518/0618 20006KT P6SM VCTS SCT025CB BKN040
      TEMPO 0519/0523 4SM SHRA BR SCT015 BKN025
     FM052300 VRB04KT P6SM -SHRA SCT015 BKN025
     FM060300 VRB03KT 4SM BR SCT025 BKN100
     FM060800 VRB02KT 2SM BR SCT009 BKN015
     FM061300 VRB03KT 6SM BR BKN020
     FM061500 25007KT P6SM SCT035=

USA.gov is the U.S. government's official web portal to all federal, state and local government web resources and services.